createdAt,value
2022-12-13T00:01:32.733Z,-1.25
2022-12-13T00:04:01.384Z,-1.29
2022-12-13T00:06:28.688Z,-1.32
2022-12-13T00:08:55.185Z,-1.36
2022-12-13T00:11:22.124Z,-1.38
2022-12-13T00:13:48.940Z,-1.40
2022-12-13T00:16:18.055Z,-1.40
2022-12-13T00:18:58.011Z,-1.36
2022-12-13T00:21:30.175Z,-1.31
2022-12-13T00:23:58.136Z,-1.25
2022-12-13T00:26:30.033Z,-1.23
2022-12-13T00:28:59.845Z,-1.21
2022-12-13T00:31:56.648Z,-1.20
2022-12-13T00:34:13.609Z,-1.21
2022-12-13T00:36:40.059Z,-1.23
2022-12-13T00:39:06.482Z,-1.24
2022-12-13T00:41:34.964Z,-1.27
2022-12-13T00:44:02.154Z,-1.29
2022-12-13T00:46:29.311Z,-1.32
2022-12-13T00:48:59.778Z,-1.33
2022-12-13T00:51:28.259Z,-1.37
2022-12-13T00:53:55.393Z,-1.40
2022-12-13T00:56:24.787Z,-1.40
2022-12-13T00:58:52.387Z,-1.37
2022-12-13T01:01:21.685Z,-1.33
2022-12-13T01:03:48.312Z,-1.29
2022-12-13T01:06:21.470Z,-1.27
2022-12-13T01:08:48.693Z,-1.25
2022-12-13T01:11:15.097Z,-1.24
2022-12-13T01:13:41.617Z,-1.26
2022-12-13T01:16:10.664Z,-1.28
2022-12-13T01:18:38.424Z,-1.31
2022-12-13T01:21:07.458Z,-1.32
2022-12-13T01:23:34.123Z,-1.35
2022-12-13T01:26:09.061Z,-1.38
2022-12-13T01:28:35.563Z,-1.41
2022-12-13T01:31:14.237Z,-1.44
2022-12-13T01:33:41.657Z,-1.42
2022-12-13T01:36:13.351Z,-1.37
2022-12-13T01:38:39.950Z,-1.32
2022-12-13T01:41:17.850Z,-1.27
2022-12-13T01:43:49.447Z,-1.24
2022-12-13T01:46:17.556Z,-1.24
2022-12-13T01:48:54.620Z,-1.26
2022-12-13T01:51:25.953Z,-1.26
2022-12-13T01:53:53.422Z,-1.28
2022-12-13T01:56:44.442Z,-1.29
2022-12-13T01:59:14.748Z,-1.34
2022-12-13T02:01:41.460Z,-1.36
2022-12-13T02:04:08.012Z,-1.38
2022-12-13T02:06:37.465Z,-1.40
2022-12-13T02:09:05.929Z,-1.44
2022-12-13T02:11:34.824Z,-1.47
2022-12-13T02:14:01.385Z,-1.50
2022-12-13T02:17:02.273Z,-1.51
2022-12-13T02:19:30.379Z,-1.48
2022-12-13T02:22:13.074Z,-1.43
2022-12-13T02:25:04.047Z,-1.38
2022-12-13T02:27:45.626Z,-1.34
2022-12-13T02:30:21.997Z,-1.34
2022-12-13T02:33:07.619Z,-1.34
2022-12-13T02:35:59.594Z,-1.37
2022-12-13T02:38:30.461Z,-1.39
2022-12-13T02:41:13.476Z,-1.41
2022-12-13T02:43:48.576Z,-1.43
2022-12-13T02:46:18.906Z,-1.48
2022-12-13T02:48:46.542Z,-1.52
2022-12-13T02:51:14.129Z,-1.57
2022-12-13T02:53:41.509Z,-1.61
2022-12-13T02:56:08.925Z,-1.64
2022-12-13T02:58:39.864Z,-1.67
2022-12-13T03:01:29.784Z,-1.72
2022-12-13T03:04:12.433Z,-1.76
2022-12-13T03:07:06.047Z,-1.81
2022-12-13T03:09:54.214Z,-1.85
2022-12-13T03:13:16.165Z,-1.83
2022-12-13T03:16:03.609Z,-1.78
2022-12-13T03:18:34.571Z,-1.75
2022-12-13T03:21:03.871Z,-1.73
2022-12-13T03:23:30.678Z,-1.72
2022-12-13T03:26:11.061Z,-1.73
2022-12-13T03:28:39.024Z,-1.74
2022-12-13T03:31:06.210Z,-1.77
2022-12-13T03:33:32.664Z,-1.81
2022-12-13T03:36:00.222Z,-1.85
2022-12-13T03:38:26.819Z,-1.89
2022-12-13T03:41:02.357Z,-1.92
2022-12-13T03:43:29.387Z,-1.94
2022-12-13T03:45:55.890Z,-1.97
2022-12-13T03:48:23.779Z,-2.00
2022-12-13T03:50:52.552Z,-2.02
2022-12-13T03:53:23.231Z,-2.06
2022-12-13T03:56:04.731Z,-2.11
2022-12-13T03:58:35.014Z,-2.16
2022-12-13T04:01:05.981Z,-2.20
2022-12-13T04:03:32.626Z,-2.25
2022-12-13T04:05:59.035Z,-2.30
2022-12-13T04:08:25.597Z,-2.34
2022-12-13T04:10:52.147Z,-2.34
2022-12-13T04:13:34.124Z,-2.30
2022-12-13T04:16:01.721Z,-2.25
2022-12-13T04:18:28.207Z,-2.21
2022-12-13T04:20:54.776Z,-2.18
2022-12-13T04:23:21.274Z,-2.16
2022-12-13T04:25:47.665Z,-2.15
2022-12-13T04:28:22.358Z,-2.15
2022-12-13T04:30:53.012Z,-2.17
2022-12-13T04:33:24.013Z,-2.18
2022-12-13T04:35:50.650Z,-2.19
2022-12-13T04:38:17.707Z,-2.20
2022-12-13T04:40:44.191Z,-2.20
2022-12-13T04:43:10.880Z,-2.21
2022-12-13T04:45:40.379Z,-2.21
2022-12-13T04:48:07.644Z,-2.21
2022-12-13T04:50:34.985Z,-2.19
2022-12-13T04:53:01.382Z,-2.21
2022-12-13T04:55:27.835Z,-2.22
2022-12-13T04:57:54.359Z,-2.25
2022-12-13T05:00:23.625Z,-2.25
2022-12-13T05:02:50.100Z,-2.21
2022-12-13T05:05:17.213Z,-2.14
2022-12-13T05:07:44.039Z,-2.06
2022-12-13T05:10:11.249Z,-1.98
2022-12-13T05:12:37.748Z,-1.94
2022-12-13T05:15:05.223Z,-1.93
2022-12-13T05:17:31.748Z,-1.92
2022-12-13T05:19:58.149Z,-1.91
2022-12-13T05:22:24.621Z,-1.90
2022-12-13T05:24:51.165Z,-1.91
2022-12-13T05:27:24.039Z,-1.91
2022-12-13T05:30:04.223Z,-1.92
2022-12-13T05:32:42.791Z,-1.95
2022-12-13T05:35:22.017Z,-1.96
2022-12-13T05:37:53.470Z,-1.99
2022-12-13T05:40:21.185Z,-2.02
2022-12-13T05:42:47.422Z,-2.04
2022-12-13T05:45:15.869Z,-2.07
2022-12-13T05:47:43.034Z,-2.10
2022-12-13T05:50:10.212Z,-2.12
2022-12-13T05:52:36.927Z,-2.10
2022-12-13T05:55:03.974Z,-2.04
2022-12-13T05:57:30.596Z,-1.97
2022-12-13T05:59:57.218Z,-1.90
2022-12-13T06:02:23.877Z,-1.85
2022-12-13T06:04:50.451Z,-1.84
2022-12-13T06:07:17.248Z,-1.86
2022-12-13T06:09:44.131Z,-1.86
2022-12-13T06:12:31.245Z,-1.84
2022-12-13T06:15:00.806Z,-1.85
2022-12-13T06:17:35.776Z,-1.86
2022-12-13T06:20:24.308Z,-1.89
2022-12-13T06:22:53.827Z,-1.91
2022-12-13T06:25:30.957Z,-1.93
2022-12-13T06:28:01.309Z,-1.94
2022-12-13T06:30:31.552Z,-1.97
2022-12-13T06:32:57.982Z,-2.00
2022-12-13T06:35:28.007Z,-2.03
2022-12-13T06:38:01.187Z,-2.05
2022-12-13T06:40:30.086Z,-2.04
2022-12-13T06:42:56.957Z,-1.99
2022-12-13T06:45:23.338Z,-1.92
2022-12-13T06:47:49.743Z,-1.86
2022-12-13T06:50:16.592Z,-1.81
2022-12-13T06:52:45.467Z,-1.80
2022-12-13T06:55:12.011Z,-1.79
2022-12-13T06:57:40.657Z,-1.77
2022-12-13T07:00:09.401Z,-1.79
2022-12-13T07:02:37.549Z,-1.82
2022-12-13T07:05:04.528Z,-1.85
2022-12-13T07:07:31.117Z,-1.86
2022-12-13T07:09:57.499Z,-1.87
2022-12-13T07:12:23.918Z,-1.89
2022-12-13T07:14:50.459Z,-1.92
2022-12-13T07:17:33.306Z,-1.95
2022-12-13T07:20:07.384Z,-1.92
2022-12-13T07:22:35.302Z,-1.85
2022-12-13T07:25:04.221Z,-1.78
2022-12-13T07:27:30.759Z,-1.73
2022-12-13T07:29:57.334Z,-1.69
2022-12-13T07:32:23.825Z,-1.68
2022-12-13T07:34:52.396Z,-1.69
2022-12-13T07:37:29.301Z,-1.70
2022-12-13T07:40:03.441Z,-1.71
2022-12-13T07:42:31.193Z,-1.74
2022-12-13T07:44:57.664Z,-1.75
2022-12-13T07:47:29.456Z,-1.76
2022-12-13T07:49:56.014Z,-1.79
2022-12-13T07:52:22.720Z,-1.83
2022-12-13T07:54:49.321Z,-1.85
2022-12-13T07:57:15.822Z,-1.82
2022-12-13T07:59:42.334Z,-1.77
2022-12-13T08:02:12.544Z,-1.71
2022-12-13T08:04:39.109Z,-1.66
2022-12-13T08:07:09.300Z,-1.62
2022-12-13T08:09:36.068Z,-1.60
2022-12-13T08:12:03.352Z,-1.59
2022-12-13T08:14:29.814Z,-1.60
2022-12-13T08:16:56.678Z,-1.60
2022-12-13T08:19:23.599Z,-1.63
2022-12-13T08:21:56.072Z,-1.62
2022-12-13T08:24:24.632Z,-1.63
2022-12-13T08:26:51.604Z,-1.66
2022-12-13T08:29:22.185Z,-1.70
2022-12-13T08:31:58.911Z,-1.74
2022-12-13T08:34:27.955Z,-1.78
2022-12-13T08:37:01.657Z,-1.81
2022-12-13T08:39:34.188Z,-1.85
2022-12-13T08:42:16.122Z,-1.84
2022-12-13T08:44:49.372Z,-1.79
2022-12-13T08:47:24.690Z,-1.74
2022-12-13T08:50:02.006Z,-1.71
2022-12-13T08:52:32.192Z,-1.67
2022-12-13T08:55:09.202Z,-1.66
2022-12-13T08:57:36.775Z,-1.65
2022-12-13T09:00:05.183Z,-1.66
2022-12-13T09:02:32.097Z,-1.68
2022-12-13T09:05:06.570Z,-1.69
2022-12-13T09:07:35.456Z,-1.71
2022-12-13T09:10:07.006Z,-1.76
2022-12-13T09:12:51.203Z,-1.78
2022-12-13T09:15:22.249Z,-1.80
2022-12-13T09:17:52.218Z,-1.77
2022-12-13T09:20:28.623Z,-1.71
2022-12-13T09:23:02.056Z,-1.63
2022-12-13T09:25:37.202Z,-1.56
2022-12-13T09:28:07.761Z,-1.52
2022-12-13T09:30:38.280Z,-1.49
2022-12-13T09:33:17.860Z,-1.47
2022-12-13T09:35:51.837Z,-1.47
2022-12-13T09:38:18.242Z,-1.46
2022-12-13T09:40:45.629Z,-1.49
2022-12-13T09:43:23.730Z,-1.51
2022-12-13T09:46:01.402Z,-1.56
2022-12-13T09:48:28.985Z,-1.59
2022-12-13T09:51:16.936Z,-1.59
2022-12-13T09:53:49.828Z,-1.61
2022-12-13T09:56:18.299Z,-1.64
2022-12-13T09:58:47.771Z,-1.67
2022-12-13T10:01:23.140Z,-1.68
2022-12-13T10:03:52.070Z,-1.70
2022-12-13T10:06:23.459Z,-1.72
2022-12-13T10:08:58.456Z,-1.69
2022-12-13T10:11:32.200Z,-1.64
2022-12-13T10:14:09.495Z,-1.55
2022-12-13T10:16:43.774Z,-1.47
2022-12-13T10:19:30.045Z,-1.43
2022-12-13T10:22:01.869Z,-1.41
2022-12-13T10:24:47.434Z,-1.40
2022-12-13T10:27:19.746Z,-1.41
2022-12-13T10:30:06.401Z,-1.40
2022-12-13T10:32:47.680Z,-1.41
2022-12-13T10:35:25.850Z,-1.42
2022-12-13T10:37:53.116Z,-1.42
2022-12-13T10:40:37.090Z,-1.42
2022-12-13T10:43:14.121Z,-1.43
2022-12-13T10:45:42.008Z,-1.47
2022-12-13T10:48:20.012Z,-1.50
2022-12-13T10:50:57.816Z,-1.53
2022-12-13T10:53:29.313Z,-1.55
2022-12-13T10:55:56.411Z,-1.53
2022-12-13T10:58:40.840Z,-1.49
2022-12-13T11:01:23.257Z,-1.45
2022-12-13T11:04:02.632Z,-1.42
2022-12-13T11:06:45.997Z,-1.41
2022-12-13T11:09:23.411Z,-1.41
2022-12-13T11:11:51.787Z,-1.41
2022-12-13T11:14:31.813Z,-1.44
2022-12-13T11:17:13.441Z,-1.48
2022-12-13T11:19:44.917Z,-1.51
2022-12-13T11:22:20.850Z,-1.54
2022-12-13T11:24:54.864Z,-1.58
2022-12-13T11:27:58.713Z,-1.60
2022-12-13T11:30:43.342Z,-1.64
2022-12-13T11:33:28.973Z,-1.65
2022-12-13T11:36:26.250Z,-1.67
2022-12-13T11:38:58.400Z,-1.68
2022-12-13T11:41:31.275Z,-1.70
2022-12-13T11:44:28.684Z,-1.73
2022-12-13T11:46:57.987Z,-1.74
2022-12-13T11:49:31.401Z,-1.75
2022-12-13T11:52:04.031Z,-1.75
2022-12-13T11:58:04.700Z,-1.65
2022-12-13T12:01:05.570Z,-1.59
2022-12-13T12:03:47.510Z,-1.53
2022-12-13T12:06:31.528Z,-1.48
2022-12-13T12:09:04.454Z,-1.46
2022-12-13T12:11:31.736Z,-1.45
2022-12-13T12:14:08.771Z,-1.46
2022-12-13T12:16:40.176Z,-1.47
2022-12-13T12:19:13.644Z,-1.48
2022-12-13T12:22:13.875Z,-1.50
2022-12-13T12:25:07.754Z,-1.53
2022-12-13T12:27:57.574Z,-1.56
2022-12-13T12:30:42.375Z,-1.58
2022-12-13T12:33:12.238Z,-1.60
2022-12-13T12:35:46.205Z,-1.60
2022-12-13T12:38:53.559Z,-1.61
2022-12-13T12:41:35.866Z,-1.60
2022-12-13T12:44:34.209Z,-1.59
2022-12-13T12:48:08.969Z,-1.59
2022-12-13T12:50:42.933Z,-1.57
2022-12-13T12:53:35.392Z,-1.58
2022-12-13T12:56:10.357Z,-1.59
2022-12-13T12:58:57.772Z,-1.59
2022-12-13T13:01:43.824Z,-1.59
2022-12-13T13:04:14.095Z,-1.59
